sensor_id;sensor_type;location;lat;lon;timestamp;P1;durP1;ratioP1;P2;durP2;ratioP2
85022;SDS011;75348;43.126;-2.538;2024-01-07T00:02:00;13.75;;;5.55;;
85022;SDS011;75348;43.126;-2.538;2024-01-07T00:04:29;9.30;;;4.60;;
85022;SDS011;75348;43.126;-2.538;2024-01-07T00:06:54;9.35;;;4.68;;
85022;SDS011;75348;43.126;-2.538;2024-01-07T00:09:20;9.18;;;4.07;;
85022;SDS011;75348;43.126;-2.538;2024-01-07T00:11:45;7.10;;;3.03;;
85022;SDS011;75348;43.126;-2.538;2024-01-07T00:14:14;4.53;;;2.53;;
85022;SDS011;75348;43.126;-2.538;2024-01-07T00:16:40;9.85;;;4.68;;
85022;SDS011;75348;43.126;-2.538;2024-01-07T00:19:06;6.85;;;3.60;;
85022;SDS011;75348;43.126;-2.538;2024-01-07T00:21:32;6.53;;;4.03;;
85022;SDS011;75348;43.126;-2.538;2024-01-07T00:23:59;6.18;;;3.38;;
85022;SDS011;75348;43.126;-2.538;2024-01-07T00:26:25;5.25;;;2.80;;
85022;SDS011;75348;43.126;-2.538;2024-01-07T00:28:57;4.05;;;3.13;;
85022;SDS011;75348;43.126;-2.538;2024-01-07T00:31:23;5.70;;;4.05;;
85022;SDS011;75348;43.126;-2.538;2024-01-07T00:33:48;10.48;;;5.68;;
85022;SDS011;75348;43.126;-2.538;2024-01-07T00:38:55;8.00;;;4.47;;
85022;SDS011;75348;43.126;-2.538;2024-01-07T00:41:20;9.80;;;4.90;;
85022;SDS011;75348;43.126;-2.538;2024-01-07T00:43:50;7.30;;;3.45;;
85022;SDS011;75348;43.126;-2.538;2024-01-07T00:48:44;3.88;;;2.40;;
85022;SDS011;75348;43.126;-2.538;2024-01-07T00:51:09;6.65;;;3.00;;
85022;SDS011;75348;43.126;-2.538;2024-01-07T00:53:35;8.93;;;3.10;;
85022;SDS011;75348;43.126;-2.538;2024-01-07T00:56:00;9.15;;;3.33;;
85022;SDS011;75348;43.126;-2.538;2024-01-07T00:58:28;4.85;;;2.55;;
85022;SDS011;75348;43.126;-2.538;2024-01-07T01:00:54;5.50;;;2.85;;
85022;SDS011;75348;43.126;-2.538;2024-01-07T01:03:22;5.03;;;3.25;;
85022;SDS011;75348;43.126;-2.538;2024-01-07T01:05:47;6.13;;;3.00;;
85022;SDS011;75348;43.126;-2.538;2024-01-07T01:08:13;5.43;;;3.40;;
85022;SDS011;75348;43.126;-2.538;2024-01-07T01:10:38;5.07;;;3.00;;
85022;SDS011;75348;43.126;-2.538;2024-01-07T01:13:11;4.90;;;3.20;;
85022;SDS011;75348;43.126;-2.538;2024-01-07T01:15:36;6.38;;;3.53;;
85022;SDS011;75348;43.126;-2.538;2024-01-07T01:18:02;6.45;;;3.72;;
85022;SDS011;75348;43.126;-2.538;2024-01-07T01:20:27;8.70;;;3.20;;
85022;SDS011;75348;43.126;-2.538;2024-01-07T01:22:54;7.20;;;3.00;;
85022;SDS011;75348;43.126;-2.538;2024-01-07T01:25:23;5.97;;;3.03;;
85022;SDS011;75348;43.126;-2.538;2024-01-07T01:27:57;6.55;;;3.25;;
85022;SDS011;75348;43.126;-2.538;2024-01-07T01:30:24;7.32;;;3.40;;
85022;SDS011;75348;43.126;-2.538;2024-01-07T01:32:50;6.32;;;3.10;;
85022;SDS011;75348;43.126;-2.538;2024-01-07T01:35:15;4.82;;;3.47;;
85022;SDS011;75348;43.126;-2.538;2024-01-07T01:37:53;9.25;;;4.60;;
85022;SDS011;75348;43.126;-2.538;2024-01-07T01:40:21;8.60;;;4.97;;
85022;SDS011;75348;43.126;-2.538;2024-01-07T01:42:47;4.85;;;3.13;;
85022;SDS011;75348;43.126;-2.538;2024-01-07T01:45:20;5.70;;;2.72;;
85022;SDS011;75348;43.126;-2.538;2024-01-07T01:47:45;5.80;;;3.50;;
85022;SDS011;75348;43.126;-2.538;2024-01-07T01:50:19;4.40;;;2.95;;
85022;SDS011;75348;43.126;-2.538;2024-01-07T01:52:52;7.68;;;2.85;;
85022;SDS011;75348;43.126;-2.538;2024-01-07T01:55:21;9.45;;;3.25;;
85022;SDS011;75348;43.126;-2.538;2024-01-07T01:57:47;5.53;;;2.97;;
85022;SDS011;75348;43.126;-2.538;2024-01-07T02:00:16;4.05;;;2.88;;
85022;SDS011;75348;43.126;-2.538;2024-01-07T02:02:41;5.30;;;3.03;;
85022;SDS011;75348;43.126;-2.538;2024-01-07T02:05:07;9.32;;;3.58;;
85022;SDS011;75348;43.126;-2.538;2024-01-07T02:07:33;10.15;;;3.10;;
85022;SDS011;75348;43.126;-2.538;2024-01-07T02:10:01;5.97;;;3.33;;
85022;SDS011;75348;43.126;-2.538;2024-01-07T02:12:30;6.28;;;2.90;;
85022;SDS011;75348;43.126;-2.538;2024-01-07T02:14:55;5.93;;;3.10;;
85022;SDS011;75348;43.126;-2.538;2024-01-07T02:17:25;3.90;;;2.80;;
85022;SDS011;75348;43.126;-2.538;2024-01-07T02:19:56;3.78;;;2.33;;
85022;SDS011;75348;43.126;-2.538;2024-01-07T02:22:22;5.20;;;2.35;;
85022;SDS011;75348;43.126;-2.538;2024-01-07T02:24:47;3.65;;;2.40;;
85022;SDS011;75348;43.126;-2.538;2024-01-07T02:27:15;6.70;;;3.90;;
85022;SDS011;75348;43.126;-2.538;2024-01-07T02:29:43;5.78;;;2.90;;
85022;SDS011;75348;43.126;-2.538;2024-01-07T02:32:08;8.82;;;2.78;;
85022;SDS011;75348;43.126;-2.538;2024-01-07T02:34:33;6.35;;;2.63;;
85022;SDS011;75348;43.126;-2.538;2024-01-07T02:36:59;7.53;;;2.53;;
85022;SDS011;75348;43.126;-2.538;2024-01-07T02:39:28;4.53;;;2.80;;
85022;SDS011;75348;43.126;-2.538;2024-01-07T02:41:54;4.38;;;2.20;;
85022;SDS011;75348;43.126;-2.538;2024-01-07T02:44:21;9.25;;;3.40;;
85022;SDS011;75348;43.126;-2.538;2024-01-07T02:46:47;12.98;;;3.67;;
85022;SDS011;75348;43.126;-2.538;2024-01-07T02:49:12;5.90;;;2.88;;
85022;SDS011;75348;43.126;-2.538;2024-01-07T02:51:43;4.88;;;3.13;;
85022;SDS011;75348;43.126;-2.538;2024-01-07T02:56:41;3.45;;;2.60;;
85022;SDS011;75348;43.126;-2.538;2024-01-07T02:59:09;5.75;;;3.00;;
85022;SDS011;75348;43.126;-2.538;2024-01-07T03:01:34;6.85;;;3.20;;
85022;SDS011;75348;43.126;-2.538;2024-01-07T03:04:09;6.22;;;2.63;;
85022;SDS011;75348;43.126;-2.538;2024-01-07T03:06:38;3.67;;;2.50;;
85022;SDS011;75348;43.126;-2.538;2024-01-07T03:09:05;6.15;;;2.30;;
85022;SDS011;75348;43.126;-2.538;2024-01-07T03:11:31;10.88;;;2.20;;
85022;SDS011;75348;43.126;-2.538;2024-01-07T03:13:57;4.15;;;2.10;;
85022;SDS011;75348;43.126;-2.538;2024-01-07T03:16:23;3.47;;;2.00;;
85022;SDS011;75348;43.126;-2.538;2024-01-07T03:18:52;3.67;;;2.03;;
85022;SDS011;75348;43.126;-2.538;2024-01-07T03:21:20;8.32;;;2.00;;
85022;SDS011;75348;43.126;-2.538;2024-01-07T03:23:51;7.88;;;2.67;;
85022;SDS011;75348;43.126;-2.538;2024-01-07T03:26:18;5.95;;;2.25;;
85022;SDS011;75348;43.126;-2.538;2024-01-07T03:28:44;9.18;;;2.90;;
85022;SDS011;75348;43.126;-2.538;2024-01-07T03:31:14;6.55;;;2.45;;
85022;SDS011;75348;43.126;-2.538;2024-01-07T03:33:42;5.30;;;2.15;;
85022;SDS011;75348;43.126;-2.538;2024-01-07T03:36:08;7.35;;;2.15;;
85022;SDS011;75348;43.126;-2.538;2024-01-07T03:38:38;7.18;;;2.10;;
85022;SDS011;75348;43.126;-2.538;2024-01-07T03:41:19;5.50;;;2.42;;
85022;SDS011;75348;43.126;-2.538;2024-01-07T03:43:46;3.28;;;1.60;;
85022;SDS011;75348;43.126;-2.538;2024-01-07T03:46:14;3.47;;;1.77;;
85022;SDS011;75348;43.126;-2.538;2024-01-07T03:48:42;3.13;;;1.60;;
85022;SDS011;75348;43.126;-2.538;2024-01-07T03:51:08;6.25;;;1.98;;
85022;SDS011;75348;43.126;-2.538;2024-01-07T03:53:34;3.85;;;1.55;;
85022;SDS011;75348;43.126;-2.538;2024-01-07T03:56:00;3.50;;;1.70;;
85022;SDS011;75348;43.126;-2.538;2024-01-07T03:58:27;6.05;;;1.83;;
85022;SDS011;75348;43.126;-2.538;2024-01-07T04:00:52;5.40;;;1.80;;
85022;SDS011;75348;43.126;-2.538;2024-01-07T04:03:18;6.45;;;1.85;;
85022;SDS011;75348;43.126;-2.538;2024-01-07T04:05:51;6.10;;;1.88;;
85022;SDS011;75348;43.126;-2.538;2024-01-07T04:08:16;6.00;;;2.40;;
85022;SDS011;75348;43.126;-2.538;2024-01-07T04:10:42;4.32;;;2.00;;
85022;SDS011;75348;43.126;-2.538;2024-01-07T04:13:14;3.17;;;2.00;;
85022;SDS011;75348;43.126;-2.538;2024-01-07T04:15:40;7.47;;;2.33;;
85022;SDS011;75348;43.126;-2.538;2024-01-07T04:18:05;7.30;;;2.15;;
85022;SDS011;75348;43.126;-2.538;2024-01-07T04:20:31;4.70;;;2.10;;
85022;SDS011;75348;43.126;-2.538;2024-01-07T04:23:01;6.60;;;2.13;;
85022;SDS011;75348;43.126;-2.538;2024-01-07T04:25:28;4.38;;;2.08;;
85022;SDS011;75348;43.126;-2.538;2024-01-07T04:27:54;4.50;;;2.08;;
85022;SDS011;75348;43.126;-2.538;2024-01-07T04:30:19;6.07;;;2.30;;
85022;SDS011;75348;43.126;-2.538;2024-01-07T04:32:46;2.60;;;1.70;;
85022;SDS011;75348;43.126;-2.538;2024-01-07T04:35:15;3.88;;;1.83;;
85022;SDS011;75348;43.126;-2.538;2024-01-07T04:37:42;5.55;;;2.05;;
85022;SDS011;75348;43.126;-2.538;2024-01-07T04:40:07;5.38;;;2.20;;
85022;SDS011;75348;43.126;-2.538;2024-01-07T04:42:34;5.40;;;2.45;;
85022;SDS011;75348;43.126;-2.538;2024-01-07T04:45:06;4.05;;;2.08;;
85022;SDS011;75348;43.126;-2.538;2024-01-07T04:47:32;3.33;;;2.08;;
85022;SDS011;75348;43.126;-2.538;2024-01-07T04:50:00;3.35;;;2.05;;
85022;SDS011;75348;43.126;-2.538;2024-01-07T04:52:26;4.93;;;2.10;;
85022;SDS011;75348;43.126;-2.538;2024-01-07T04:54:55;6.32;;;2.40;;
85022;SDS011;75348;43.126;-2.538;2024-01-07T04:57:21;3.85;;;2.00;;
85022;SDS011;75348;43.126;-2.538;2024-01-07T05:00:11;2.20;;;1.70;;
85022;SDS011;75348;43.126;-2.538;2024-01-07T05:02:58;9.35;;;2.65;;
85022;SDS011;75348;43.126;-2.538;2024-01-07T05:05:26;6.60;;;2.90;;
85022;SDS011;75348;43.126;-2.538;2024-01-07T05:07:52;6.78;;;2.95;;
85022;SDS011;75348;43.126;-2.538;2024-01-07T05:10:18;6.63;;;2.70;;
85022;SDS011;75348;43.126;-2.538;2024-01-07T05:12:46;3.75;;;2.47;;
85022;SDS011;75348;43.126;-2.538;2024-01-07T05:15:12;5.13;;;2.33;;
85022;SDS011;75348;43.126;-2.538;2024-01-07T05:17:47;5.93;;;2.47;;
85022;SDS011;75348;43.126;-2.538;2024-01-07T05:20:16;4.38;;;1.90;;
85022;SDS011;75348;43.126;-2.538;2024-01-07T05:22:45;4.90;;;1.98;;
85022;SDS011;75348;43.126;-2.538;2024-01-07T05:25:12;4.40;;;2.25;;
85022;SDS011;75348;43.126;-2.538;2024-01-07T05:27:38;5.80;;;2.20;;
85022;SDS011;75348;43.126;-2.538;2024-01-07T05:30:04;4.10;;;2.30;;
85022;SDS011;75348;43.126;-2.538;2024-01-07T05:32:30;4.05;;;2.25;;
85022;SDS011;75348;43.126;-2.538;2024-01-07T05:34:56;7.47;;;2.83;;
85022;SDS011;75348;43.126;-2.538;2024-01-07T05:37:21;5.25;;;2.75;;
85022;SDS011;75348;43.126;-2.538;2024-01-07T05:39:47;10.90;;;3.50;;
85022;SDS011;75348;43.126;-2.538;2024-01-07T05:42:12;7.82;;;2.78;;
85022;SDS011;75348;43.126;-2.538;2024-01-07T05:44:38;3.30;;;1.98;;
85022;SDS011;75348;43.126;-2.538;2024-01-07T05:47:07;3.55;;;2.20;;
85022;SDS011;75348;43.126;-2.538;2024-01-07T05:49:32;6.15;;;2.20;;
85022;SDS011;75348;43.126;-2.538;2024-01-07T05:51:58;5.32;;;2.40;;
85022;SDS011;75348;43.126;-2.538;2024-01-07T05:54:32;7.28;;;2.40;;
85022;SDS011;75348;43.126;-2.538;2024-01-07T05:56:58;5.43;;;2.40;;
85022;SDS011;75348;43.126;-2.538;2024-01-07T05:59:30;5.00;;;2.25;;
85022;SDS011;75348;43.126;-2.538;2024-01-07T06:01:59;7.40;;;2.22;;
85022;SDS011;75348;43.126;-2.538;2024-01-07T06:04:25;3.80;;;1.95;;
85022;SDS011;75348;43.126;-2.538;2024-01-07T06:06:52;9.40;;;3.15;;
85022;SDS011;75348;43.126;-2.538;2024-01-07T06:09:18;10.13;;;3.05;;
85022;SDS011;75348;43.126;-2.538;2024-01-07T06:11:43;6.30;;;2.60;;
85022;SDS011;75348;43.126;-2.538;2024-01-07T06:14:12;8.77;;;2.33;;
85022;SDS011;75348;43.126;-2.538;2024-01-07T06:16:42;9.93;;;3.10;;
85022;SDS011;75348;43.126;-2.538;2024-01-07T06:19:07;10.70;;;3.20;;
85022;SDS011;75348;43.126;-2.538;2024-01-07T06:21:33;4.88;;;2.20;;
85022;SDS011;75348;43.126;-2.538;2024-01-07T06:24:00;10.00;;;2.90;;
85022;SDS011;75348;43.126;-2.538;2024-01-07T06:26:26;9.65;;;2.78;;
85022;SDS011;75348;43.126;-2.538;2024-01-07T06:28:52;9.75;;;3.47;;
85022;SDS011;75348;43.126;-2.538;2024-01-07T06:31:17;7.47;;;3.03;;
85022;SDS011;75348;43.126;-2.538;2024-01-07T06:33:43;4.70;;;2.10;;
85022;SDS011;75348;43.126;-2.538;2024-01-07T06:36:14;5.90;;;3.38;;
85022;SDS011;75348;43.126;-2.538;2024-01-07T06:38:39;4.07;;;2.10;;
85022;SDS011;75348;43.126;-2.538;2024-01-07T06:41:05;6.97;;;1.98;;
85022;SDS011;75348;43.126;-2.538;2024-01-07T06:43:30;5.32;;;2.20;;
85022;SDS011;75348;43.126;-2.538;2024-01-07T06:45:59;6.53;;;2.50;;
85022;SDS011;75348;43.126;-2.538;2024-01-07T06:48:24;11.80;;;2.22;;
85022;SDS011;75348;43.126;-2.538;2024-01-07T06:50:50;4.05;;;2.40;;
85022;SDS011;75348;43.126;-2.538;2024-01-07T06:53:15;4.28;;;2.10;;
85022;SDS011;75348;43.126;-2.538;2024-01-07T06:55:41;5.82;;;2.33;;
85022;SDS011;75348;43.126;-2.538;2024-01-07T06:58:14;5.90;;;2.70;;
85022;SDS011;75348;43.126;-2.538;2024-01-07T07:00:39;7.05;;;2.30;;
85022;SDS011;75348;43.126;-2.538;2024-01-07T07:03:05;5.80;;;2.70;;
85022;SDS011;75348;43.126;-2.538;2024-01-07T07:05:34;7.78;;;2.60;;
85022;SDS011;75348;43.126;-2.538;2024-01-07T07:08:01;7.22;;;3.08;;
85022;SDS011;75348;43.126;-2.538;2024-01-07T07:10:27;7.10;;;2.78;;
85022;SDS011;75348;43.126;-2.538;2024-01-07T07:12:53;5.82;;;2.83;;
85022;SDS011;75348;43.126;-2.538;2024-01-07T07:15:18;7.20;;;3.00;;
85022;SDS011;75348;43.126;-2.538;2024-01-07T07:17:47;8.93;;;3.50;;
85022;SDS011;75348;43.126;-2.538;2024-01-07T07:20:13;9.07;;;3.20;;
85022;SDS011;75348;43.126;-2.538;2024-01-07T07:22:41;7.95;;;3.42;;
85022;SDS011;75348;43.126;-2.538;2024-01-07T07:25:06;8.00;;;3.58;;
85022;SDS011;75348;43.126;-2.538;2024-01-07T07:27:32;12.50;;;3.50;;
85022;SDS011;75348;43.126;-2.538;2024-01-07T07:29:57;5.80;;;3.13;;
85022;SDS011;75348;43.126;-2.538;2024-01-07T07:32:26;7.95;;;3.00;;
85022;SDS011;75348;43.126;-2.538;2024-01-07T07:34:51;8.23;;;2.47;;
85022;SDS011;75348;43.126;-2.538;2024-01-07T07:37:17;6.38;;;2.83;;
85022;SDS011;75348;43.126;-2.538;2024-01-07T07:39:42;8.50;;;2.80;;
85022;SDS011;75348;43.126;-2.538;2024-01-07T07:42:11;6.38;;;2.78;;
85022;SDS011;75348;43.126;-2.538;2024-01-07T07:44:36;10.65;;;3.13;;
85022;SDS011;75348;43.126;-2.538;2024-01-07T07:47:04;4.65;;;2.97;;
85022;SDS011;75348;43.126;-2.538;2024-01-07T07:49:30;8.10;;;3.20;;
85022;SDS011;75348;43.126;-2.538;2024-01-07T07:51:56;9.65;;;4.30;;
85022;SDS011;75348;43.126;-2.538;2024-01-07T07:54:24;8.50;;;3.75;;
85022;SDS011;75348;43.126;-2.538;2024-01-07T07:56:49;6.82;;;4.00;;
85022;SDS011;75348;43.126;-2.538;2024-01-07T07:59:15;8.50;;;4.70;;
85022;SDS011;75348;43.126;-2.538;2024-01-07T08:01:40;10.23;;;4.07;;
85022;SDS011;75348;43.126;-2.538;2024-01-07T08:04:10;9.82;;;4.10;;
85022;SDS011;75348;43.126;-2.538;2024-01-07T08:06:39;7.60;;;3.63;;
85022;SDS011;75348;43.126;-2.538;2024-01-07T08:09:04;10.05;;;4.28;;
85022;SDS011;75348;43.126;-2.538;2024-01-07T08:11:36;10.43;;;3.90;;
85022;SDS011;75348;43.126;-2.538;2024-01-07T08:14:02;9.23;;;3.83;;
85022;SDS011;75348;43.126;-2.538;2024-01-07T08:16:30;8.93;;;4.35;;
85022;SDS011;75348;43.126;-2.538;2024-01-07T08:18:56;9.82;;;5.32;;
85022;SDS011;75348;43.126;-2.538;2024-01-07T08:21:22;13.88;;;6.88;;
85022;SDS011;75348;43.126;-2.538;2024-01-07T08:23:50;13.60;;;6.35;;
85022;SDS011;75348;43.126;-2.538;2024-01-07T08:26:19;15.35;;;7.10;;
85022;SDS011;75348;43.126;-2.538;2024-01-07T08:28:45;15.05;;;6.90;;
85022;SDS011;75348;43.126;-2.538;2024-01-07T08:31:11;11.20;;;5.90;;
85022;SDS011;75348;43.126;-2.538;2024-01-07T08:33:36;16.92;;;7.57;;
85022;SDS011;75348;43.126;-2.538;2024-01-07T08:36:03;13.90;;;7.00;;
85022;SDS011;75348;43.126;-2.538;2024-01-07T08:38:30;15.30;;;7.47;;
85022;SDS011;75348;43.126;-2.538;2024-01-07T08:40:55;10.95;;;6.18;;
85022;SDS011;75348;43.126;-2.538;2024-01-07T08:43:28;10.48;;;5.55;;
85022;SDS011;75348;43.126;-2.538;2024-01-07T08:45:53;15.75;;;5.70;;
85022;SDS011;75348;43.126;-2.538;2024-01-07T08:50:44;9.13;;;4.03;;
85022;SDS011;75348;43.126;-2.538;2024-01-07T08:53:15;11.63;;;4.95;;
85022;SDS011;75348;43.126;-2.538;2024-01-07T08:55:42;13.32;;;5.13;;
85022;SDS011;75348;43.126;-2.538;2024-01-07T08:58:08;13.88;;;5.40;;
85022;SDS011;75348;43.126;-2.538;2024-01-07T09:00:36;12.27;;;5.00;;
85022;SDS011;75348;43.126;-2.538;2024-01-07T09:03:01;14.00;;;5.93;;
85022;SDS011;75348;43.126;-2.538;2024-01-07T09:05:27;12.07;;;5.93;;
85022;SDS011;75348;43.126;-2.538;2024-01-07T09:07:53;9.07;;;5.32;;
85022;SDS011;75348;43.126;-2.538;2024-01-07T09:10:19;13.75;;;4.70;;
85022;SDS011;75348;43.126;-2.538;2024-01-07T09:12:54;10.75;;;5.00;;
85022;SDS011;75348;43.126;-2.538;2024-01-07T09:15:20;7.95;;;4.30;;
85022;SDS011;75348;43.126;-2.538;2024-01-07T09:17:48;7.22;;;4.03;;
85022;SDS011;75348;43.126;-2.538;2024-01-07T09:20:13;12.45;;;4.00;;
85022;SDS011;75348;43.126;-2.538;2024-01-07T09:22:39;7.45;;;3.75;;
85022;SDS011;75348;43.126;-2.538;2024-01-07T09:25:05;13.63;;;5.63;;
85022;SDS011;75348;43.126;-2.538;2024-01-07T09:27:33;11.60;;;5.63;;
85022;SDS011;75348;43.126;-2.538;2024-01-07T09:29:59;8.40;;;4.07;;
85022;SDS011;75348;43.126;-2.538;2024-01-07T09:32:24;9.32;;;3.28;;
85022;SDS011;75348;43.126;-2.538;2024-01-07T09:34:53;6.88;;;3.55;;
85022;SDS011;75348;43.126;-2.538;2024-01-07T09:37:19;5.03;;;2.60;;
85022;SDS011;75348;43.126;-2.538;2024-01-07T09:39:48;7.63;;;2.90;;
85022;SDS011;75348;43.126;-2.538;2024-01-07T09:42:18;9.52;;;3.25;;
85022;SDS011;75348;43.126;-2.538;2024-01-07T09:44:46;8.55;;;2.95;;
85022;SDS011;75348;43.126;-2.538;2024-01-07T09:47:17;8.63;;;3.25;;
85022;SDS011;75348;43.126;-2.538;2024-01-07T09:49:45;8.50;;;3.35;;
85022;SDS011;75348;43.126;-2.538;2024-01-07T09:52:12;9.73;;;4.28;;
85022;SDS011;75348;43.126;-2.538;2024-01-07T09:54:40;14.02;;;5.60;;
85022;SDS011;75348;43.126;-2.538;2024-01-07T09:57:11;14.68;;;6.30;;
85022;SDS011;75348;43.126;-2.538;2024-01-07T09:59:37;7.53;;;3.72;;
85022;SDS011;75348;43.126;-2.538;2024-01-07T10:02:07;16.15;;;6.07;;
85022;SDS011;75348;43.126;-2.538;2024-01-07T10:04:44;8.55;;;4.40;;
85022;SDS011;75348;43.126;-2.538;2024-01-07T10:07:23;11.30;;;3.70;;
85022;SDS011;75348;43.126;-2.538;2024-01-07T10:09:51;7.90;;;3.35;;
85022;SDS011;75348;43.126;-2.538;2024-01-07T10:12:22;6.55;;;3.10;;
85022;SDS011;75348;43.126;-2.538;2024-01-07T10:17:20;11.32;;;3.75;;
85022;SDS011;75348;43.126;-2.538;2024-01-07T10:19:52;9.50;;;4.20;;
85022;SDS011;75348;43.126;-2.538;2024-01-07T10:22:18;10.07;;;4.50;;
85022;SDS011;75348;43.126;-2.538;2024-01-07T10:24:48;5.32;;;3.47;;
85022;SDS011;75348;43.126;-2.538;2024-01-07T10:27:17;9.77;;;3.97;;
85022;SDS011;75348;43.126;-2.538;2024-01-07T10:29:42;7.45;;;4.32;;
85022;SDS011;75348;43.126;-2.538;2024-01-07T10:32:09;6.97;;;4.68;;
85022;SDS011;75348;43.126;-2.538;2024-01-07T10:34:38;9.52;;;4.78;;
85022;SDS011;75348;43.126;-2.538;2024-01-07T10:37:15;7.53;;;4.15;;
85022;SDS011;75348;43.126;-2.538;2024-01-07T10:39:42;4.80;;;3.08;;
85022;SDS011;75348;43.126;-2.538;2024-01-07T10:42:13;6.82;;;2.65;;
85022;SDS011;75348;43.126;-2.538;2024-01-07T10:44:46;6.90;;;2.58;;
85022;SDS011;75348;43.126;-2.538;2024-01-07T10:47:12;3.60;;;1.83;;
85022;SDS011;75348;43.126;-2.538;2024-01-07T10:49:42;3.08;;;1.52;;
85022;SDS011;75348;43.126;-2.538;2024-01-07T10:52:22;4.22;;;2.03;;
85022;SDS011;75348;43.126;-2.538;2024-01-07T10:54:49;2.90;;;1.80;;
85022;SDS011;75348;43.126;-2.538;2024-01-07T10:59:57;3.75;;;1.95;;
85022;SDS011;75348;43.126;-2.538;2024-01-07T11:05:52;3.97;;;1.80;;
85022;SDS011;75348;43.126;-2.538;2024-01-07T11:11:38;2.20;;;1.63;;
85022;SDS011;75348;43.126;-2.538;2024-01-07T11:20:12;5.40;;;1.80;;
85022;SDS011;75348;43.126;-2.538;2024-01-07T11:22:45;3.33;;;1.65;;
85022;SDS011;75348;43.126;-2.538;2024-01-07T11:25:28;5.97;;;2.50;;
85022;SDS011;75348;43.126;-2.538;2024-01-07T11:28:06;7.53;;;4.00;;
85022;SDS011;75348;43.126;-2.538;2024-01-07T11:30:37;6.15;;;3.40;;
85022;SDS011;75348;43.126;-2.538;2024-01-07T11:33:06;5.60;;;2.85;;
85022;SDS011;75348;43.126;-2.538;2024-01-07T11:38:25;5.90;;;2.25;;
85022;SDS011;75348;43.126;-2.538;2024-01-07T11:40:51;8.48;;;2.75;;
85022;SDS011;75348;43.126;-2.538;2024-01-07T11:43:22;8.75;;;2.65;;
85022;SDS011;75348;43.126;-2.538;2024-01-07T11:45:54;5.60;;;2.47;;
85022;SDS011;75348;43.126;-2.538;2024-01-07T11:48:21;4.25;;;1.48;;
85022;SDS011;75348;43.126;-2.538;2024-01-07T11:50:47;2.05;;;1.33;;
85022;SDS011;75348;43.126;-2.538;2024-01-07T11:53:12;4.05;;;1.70;;
85022;SDS011;75348;43.126;-2.538;2024-01-07T11:55:42;2.55;;;1.40;;
85022;SDS011;75348;43.126;-2.538;2024-01-07T11:58:10;2.95;;;1.60;;
85022;SDS011;75348;43.126;-2.538;2024-01-07T12:00:36;1.40;;;1.30;;
85022;SDS011;75348;43.126;-2.538;2024-01-07T12:03:04;2.90;;;1.75;;
85022;SDS011;75348;43.126;-2.538;2024-01-07T12:05:33;5.18;;;1.73;;
85022;SDS011;75348;43.126;-2.538;2024-01-07T12:08:00;6.55;;;2.55;;
85022;SDS011;75348;43.126;-2.538;2024-01-07T12:10:28;4.25;;;1.80;;
85022;SDS011;75348;43.126;-2.538;2024-01-07T12:13:03;2.15;;;1.60;;
85022;SDS011;75348;43.126;-2.538;2024-01-07T12:15:37;1.77;;;1.48;;
85022;SDS011;75348;43.126;-2.538;2024-01-07T12:18:05;2.72;;;1.50;;
85022;SDS011;75348;43.126;-2.538;2024-01-07T12:20:30;3.83;;;1.50;;
85022;SDS011;75348;43.126;-2.538;2024-01-07T12:22:56;5.00;;;1.95;;
85022;SDS011;75348;43.126;-2.538;2024-01-07T12:25:55;4.07;;;2.10;;
85022;SDS011;75348;43.126;-2.538;2024-01-07T12:28:36;3.95;;;2.65;;
85022;SDS011;75348;43.126;-2.538;2024-01-07T12:31:02;9.70;;;2.67;;
85022;SDS011;75348;43.126;-2.538;2024-01-07T12:33:36;6.32;;;1.80;;
85022;SDS011;75348;43.126;-2.538;2024-01-07T12:36:08;6.32;;;3.20;;
85022;SDS011;75348;43.126;-2.538;2024-01-07T12:38:36;4.90;;;2.20;;
85022;SDS011;75348;43.126;-2.538;2024-01-07T12:41:03;3.42;;;1.92;;
85022;SDS011;75348;43.126;-2.538;2024-01-07T12:43:28;3.70;;;2.70;;
85022;SDS011;75348;43.126;-2.538;2024-01-07T12:45:54;8.40;;;3.42;;
85022;SDS011;75348;43.126;-2.538;2024-01-07T12:48:28;6.53;;;2.35;;
85022;SDS011;75348;43.126;-2.538;2024-01-07T12:50:56;4.85;;;2.00;;
85022;SDS011;75348;43.126;-2.538;2024-01-07T12:53:22;10.23;;;3.13;;
85022;SDS011;75348;43.126;-2.538;2024-01-07T12:55:52;9.40;;;3.63;;
85022;SDS011;75348;43.126;-2.538;2024-01-07T12:58:29;7.78;;;3.65;;
85022;SDS011;75348;43.126;-2.538;2024-01-07T13:01:01;6.93;;;3.10;;
85022;SDS011;75348;43.126;-2.538;2024-01-07T13:05:53;9.35;;;4.03;;
85022;SDS011;75348;43.126;-2.538;2024-01-07T13:08:25;9.95;;;4.20;;
85022;SDS011;75348;43.126;-2.538;2024-01-07T13:10:53;5.60;;;3.10;;
85022;SDS011;75348;43.126;-2.538;2024-01-07T13:13:20;5.68;;;2.70;;
85022;SDS011;75348;43.126;-2.538;2024-01-07T13:15:46;2.33;;;1.70;;
85022;SDS011;75348;43.126;-2.538;2024-01-07T13:18:11;3.42;;;2.10;;
85022;SDS011;75348;43.126;-2.538;2024-01-07T13:20:37;4.55;;;2.33;;
85022;SDS011;75348;43.126;-2.538;2024-01-07T13:23:05;5.15;;;3.05;;
85022;SDS011;75348;43.126;-2.538;2024-01-07T13:25:34;4.07;;;2.55;;
85022;SDS011;75348;43.126;-2.538;2024-01-07T13:28:03;5.72;;;1.90;;
85022;SDS011;75348;43.126;-2.538;2024-01-07T13:30:29;4.72;;;2.22;;
85022;SDS011;75348;43.126;-2.538;2024-01-07T13:32:55;4.40;;;2.33;;
85022;SDS011;75348;43.126;-2.538;2024-01-07T13:35:26;4.88;;;2.50;;
85022;SDS011;75348;43.126;-2.538;2024-01-07T13:37:52;5.82;;;2.10;;
85022;SDS011;75348;43.126;-2.538;2024-01-07T13:40:17;6.38;;;3.05;;
85022;SDS011;75348;43.126;-2.538;2024-01-07T13:42:43;4.57;;;2.92;;
85022;SDS011;75348;43.126;-2.538;2024-01-07T13:45:16;3.63;;;2.40;;
85022;SDS011;75348;43.126;-2.538;2024-01-07T13:47:45;7.10;;;3.50;;
85022;SDS011;75348;43.126;-2.538;2024-01-07T13:50:16;11.82;;;5.78;;
85022;SDS011;75348;43.126;-2.538;2024-01-07T13:52:45;7.88;;;3.05;;
85022;SDS011;75348;43.126;-2.538;2024-01-07T13:55:10;6.60;;;3.72;;
85022;SDS011;75348;43.126;-2.538;2024-01-07T14:00:26;6.72;;;3.15;;
85022;SDS011;75348;43.126;-2.538;2024-01-07T14:02:55;9.48;;;4.43;;
85022;SDS011;75348;43.126;-2.538;2024-01-07T14:05:30;8.20;;;4.90;;
85022;SDS011;75348;43.126;-2.538;2024-01-07T14:07:57;5.53;;;3.60;;
85022;SDS011;75348;43.126;-2.538;2024-01-07T14:10:26;4.75;;;2.67;;
85022;SDS011;75348;43.126;-2.538;2024-01-07T14:12:51;4.22;;;2.50;;
85022;SDS011;75348;43.126;-2.538;2024-01-07T14:15:17;5.93;;;2.30;;
85022;SDS011;75348;43.126;-2.538;2024-01-07T14:17:48;4.95;;;3.20;;
85022;SDS011;75348;43.126;-2.538;2024-01-07T14:20:15;7.30;;;3.47;;
85022;SDS011;75348;43.126;-2.538;2024-01-07T14:22:40;3.63;;;2.33;;
85022;SDS011;75348;43.126;-2.538;2024-01-07T14:25:06;5.85;;;3.38;;
85022;SDS011;75348;43.126;-2.538;2024-01-07T14:27:32;7.40;;;2.95;;
85022;SDS011;75348;43.126;-2.538;2024-01-07T14:30:04;4.80;;;2.78;;
85022;SDS011;75348;43.126;-2.538;2024-01-07T14:32:30;4.63;;;3.08;;
85022;SDS011;75348;43.126;-2.538;2024-01-07T14:34:58;9.63;;;4.22;;
85022;SDS011;75348;43.126;-2.538;2024-01-07T14:37:27;7.78;;;3.92;;
85022;SDS011;75348;43.126;-2.538;2024-01-07T14:39:53;4.05;;;2.35;;
85022;SDS011;75348;43.126;-2.538;2024-01-07T14:42:18;5.18;;;2.65;;
85022;SDS011;75348;43.126;-2.538;2024-01-07T14:44:44;8.15;;;3.17;;
85022;SDS011;75348;43.126;-2.538;2024-01-07T14:47:16;9.57;;;5.10;;
85022;SDS011;75348;43.126;-2.538;2024-01-07T14:49:42;9.23;;;4.35;;
85022;SDS011;75348;43.126;-2.538;2024-01-07T14:52:10;8.32;;;4.50;;
85022;SDS011;75348;43.126;-2.538;2024-01-07T14:54:36;6.80;;;5.18;;
85022;SDS011;75348;43.126;-2.538;2024-01-07T14:57:02;12.00;;;10.35;;
85022;SDS011;75348;43.126;-2.538;2024-01-07T14:59:32;7.57;;;3.95;;
85022;SDS011;75348;43.126;-2.538;2024-01-07T15:01:57;9.07;;;3.40;;
85022;SDS011;75348;43.126;-2.538;2024-01-07T15:04:25;3.92;;;2.70;;
85022;SDS011;75348;43.126;-2.538;2024-01-07T15:06:51;4.82;;;3.20;;
85022;SDS011;75348;43.126;-2.538;2024-01-07T15:09:25;6.65;;;2.70;;
85022;SDS011;75348;43.126;-2.538;2024-01-07T15:11:51;5.28;;;2.90;;
85022;SDS011;75348;43.126;-2.538;2024-01-07T15:14:18;5.00;;;2.75;;